首页
METAR-TAF:

METAR-TAF

机场 :

澤西島,

纬度: 49-13N, 经度: 002-12W, 海拔: 84米

当前天气观测

该预报发布于23分钟前的07:50 UTC
静风
温度 7°C
湿度 93%
气压 1009 hPa
能见度10公里或以上
少量云层高于2500英尺
散云层高于4500英尺
小阵雨

METAR: EGJJ 170750Z 00000KT 9999 -SHRA FEW025 SCT045 07/06 Q1009

时间: 08:13 (08:13 UTC)

预报

该预报发布于3小时和15分钟前的04:58 UTC
预报有效从17日的 06点(UTC)到 17日的 15点(UTC)
风速5节,风向南转南东
能见度10公里或以上
少量云层高于1500英尺
多云层高于3500英尺
几率 40% :
短暂存在
从 17日的 06点(UTC)到 17日的 15点(UTC)
能見度: 8000
多云层高于1500英尺
阵雨
几率 30% :
短暂存在
从 17日的 08点(UTC)到 17日的 12点(UTC)
多云层高于1000英尺

TAF: EGJJ 170458Z 1706/1715 16005KT 9999 FEW015 BKN035 PROB40 TEMPO 1706/1715 8000 SHRA BKN015 PROB30 TEMPO 1708/1712 BKN010

超过4000个机场的气象观测和天气预报(METAR&TAF报告)。

可查询的气象台以黄色和红色小点在地图上表示。

将鼠标移到小点上方,可查看气象台名称。

然后点击查看天气观测和预报。

如需切换地图:点击带黑十字的绿色按钮放大地图;点击带横线的绿色按钮缩小地图;或者点击绿色箭头查看邻近地区的地图。


METAR-TAF: